sensor_id;sensor_type;location;lat;lon;timestamp;temperature;humidity
21662;DHT22;10992;48.170;8.596;2023-11-21T00:02:27;5.60;99.90
21662;DHT22;10992;48.170;8.596;2023-11-21T00:04:54;5.60;99.90
21662;DHT22;10992;48.170;8.596;2023-11-21T00:07:21;5.60;99.90
21662;DHT22;10992;48.170;8.596;2023-11-21T00:09:48;5.60;99.90
21662;DHT22;10992;48.170;8.596;2023-11-21T00:12:15;5.60;99.90
21662;DHT22;10992;48.170;8.596;2023-11-21T00:14:42;5.60;99.90
21662;DHT22;10992;48.170;8.596;2023-11-21T00:17:09;5.60;99.90
21662;DHT22;10992;48.170;8.596;2023-11-21T00:19:36;5.50;99.90
21662;DHT22;10992;48.170;8.596;2023-11-21T00:22:04;5.50;99.90
21662;DHT22;10992;48.170;8.596;2023-11-21T00:24:30;5.50;99.90
21662;DHT22;10992;48.170;8.596;2023-11-21T00:26:58;5.50;99.90
21662;DHT22;10992;48.170;8.596;2023-11-21T00:29:25;5.50;99.90
21662;DHT22;10992;48.170;8.596;2023-11-21T00:31:52;5.50;99.90
21662;DHT22;10992;48.170;8.596;2023-11-21T00:34:20;5.50;99.90
21662;DHT22;10992;48.170;8.596;2023-11-21T00:36:46;5.50;99.90
21662;DHT22;10992;48.170;8.596;2023-11-21T00:39:13;5.40;99.90
21662;DHT22;10992;48.170;8.596;2023-11-21T00:41:40;5.50;99.90
21662;DHT22;10992;48.170;8.596;2023-11-21T00:44:07;5.40;99.90
21662;DHT22;10992;48.170;8.596;2023-11-21T00:46:34;5.40;99.90
21662;DHT22;10992;48.170;8.596;2023-11-21T00:49:01;5.40;99.90
21662;DHT22;10992;48.170;8.596;2023-11-21T00:51:30;5.40;99.90
21662;DHT22;10992;48.170;8.596;2023-11-21T00:53:58;5.30;99.90
21662;DHT22;10992;48.170;8.596;2023-11-21T00:56:25;5.30;99.90
21662;DHT22;10992;48.170;8.596;2023-11-21T00:58:53;5.30;99.90
21662;DHT22;10992;48.170;8.596;2023-11-21T01:01:21;5.30;99.90
21662;DHT22;10992;48.170;8.596;2023-11-21T01:03:51;5.20;99.90
21662;DHT22;10992;48.170;8.596;2023-11-21T01:06:18;5.20;99.90
21662;DHT22;10992;48.170;8.596;2023-11-21T01:08:47;5.20;99.90
21662;DHT22;10992;48.170;8.596;2023-11-21T01:11:14;5.10;99.90
21662;DHT22;10992;48.170;8.596;2023-11-21T01:13:42;5.20;99.90
21662;DHT22;10992;48.170;8.596;2023-11-21T01:16:09;5.20;99.90
21662;DHT22;10992;48.170;8.596;2023-11-21T01:18:36;5.20;99.90
21662;DHT22;10992;48.170;8.596;2023-11-21T01:21:03;5.10;99.90
21662;DHT22;10992;48.170;8.596;2023-11-21T01:23:31;5.10;99.90
21662;DHT22;10992;48.170;8.596;2023-11-21T01:25:58;5.20;99.90
21662;DHT22;10992;48.170;8.596;2023-11-21T01:28:25;5.20;99.90
21662;DHT22;10992;48.170;8.596;2023-11-21T01:30:52;5.20;99.90
21662;DHT22;10992;48.170;8.596;2023-11-21T01:33:19;5.20;99.90
21662;DHT22;10992;48.170;8.596;2023-11-21T01:35:46;5.20;99.90
21662;DHT22;10992;48.170;8.596;2023-11-21T01:38:13;5.20;99.90
21662;DHT22;10992;48.170;8.596;2023-11-21T01:40:41;5.20;99.90
21662;DHT22;10992;48.170;8.596;2023-11-21T01:43:08;5.20;99.90
21662;DHT22;10992;48.170;8.596;2023-11-21T01:45:35;5.10;99.90
21662;DHT22;10992;48.170;8.596;2023-11-21T01:48:03;5.10;99.90
21662;DHT22;10992;48.170;8.596;2023-11-21T01:50:30;5.10;99.90
21662;DHT22;10992;48.170;8.596;2023-11-21T01:52:58;5.10;99.90
21662;DHT22;10992;48.170;8.596;2023-11-21T01:55:25;5.10;99.90
21662;DHT22;10992;48.170;8.596;2023-11-21T01:57:56;5.10;99.90
21662;DHT22;10992;48.170;8.596;2023-11-21T02:00:26;5.10;99.90
21662;DHT22;10992;48.170;8.596;2023-11-21T02:02:55;5.10;99.90
21662;DHT22;10992;48.170;8.596;2023-11-21T02:05:21;5.10;99.90
21662;DHT22;10992;48.170;8.596;2023-11-21T02:07:48;5.10;99.90
21662;DHT22;10992;48.170;8.596;2023-11-21T02:10:16;5.10;99.90
21662;DHT22;10992;48.170;8.596;2023-11-21T02:12:44;5.10;99.90
21662;DHT22;10992;48.170;8.596;2023-11-21T02:15:14;5.10;99.90
21662;DHT22;10992;48.170;8.596;2023-11-21T02:17:42;5.10;99.90
21662;DHT22;10992;48.170;8.596;2023-11-21T02:20:13;5.10;99.90
21662;DHT22;10992;48.170;8.596;2023-11-21T02:22:49;5.10;99.90
21662;DHT22;10992;48.170;8.596;2023-11-21T02:25:18;5.20;99.90
21662;DHT22;10992;48.170;8.596;2023-11-21T02:27:46;5.20;99.90
21662;DHT22;10992;48.170;8.596;2023-11-21T02:30:15;5.10;99.90
21662;DHT22;10992;48.170;8.596;2023-11-21T02:32:42;5.10;99.90
21662;DHT22;10992;48.170;8.596;2023-11-21T02:35:15;5.20;99.90
21662;DHT22;10992;48.170;8.596;2023-11-21T02:37:43;5.20;99.90
21662;DHT22;10992;48.170;8.596;2023-11-21T02:40:10;5.20;99.90
21662;DHT22;10992;48.170;8.596;2023-11-21T02:42:40;5.10;99.90
21662;DHT22;10992;48.170;8.596;2023-11-21T02:45:08;5.20;99.90
21662;DHT22;10992;48.170;8.596;2023-11-21T02:47:35;5.10;99.90
21662;DHT22;10992;48.170;8.596;2023-11-21T02:50:02;5.20;99.90
21662;DHT22;10992;48.170;8.596;2023-11-21T02:52:30;5.10;99.90
21662;DHT22;10992;48.170;8.596;2023-11-21T02:54:59;5.10;99.90
21662;DHT22;10992;48.170;8.596;2023-11-21T02:57:26;5.00;99.90
21662;DHT22;10992;48.170;8.596;2023-11-21T02:59:53;4.90;99.90
21662;DHT22;10992;48.170;8.596;2023-11-21T03:02:20;4.80;99.90
21662;DHT22;10992;48.170;8.596;2023-11-21T03:04:48;4.70;99.90
21662;DHT22;10992;48.170;8.596;2023-11-21T03:07:16;4.70;99.90
21662;DHT22;10992;48.170;8.596;2023-11-21T03:09:49;4.60;99.90
21662;DHT22;10992;48.170;8.596;2023-11-21T03:12:16;4.60;99.90
21662;DHT22;10992;48.170;8.596;2023-11-21T03:14:43;4.60;99.90
21662;DHT22;10992;48.170;8.596;2023-11-21T03:17:10;4.60;99.90
21662;DHT22;10992;48.170;8.596;2023-11-21T03:19:38;4.60;99.90
21662;DHT22;10992;48.170;8.596;2023-11-21T03:22:05;4.60;99.90
21662;DHT22;10992;48.170;8.596;2023-11-21T03:24:32;4.60;99.90
21662;DHT22;10992;48.170;8.596;2023-11-21T03:27:00;4.60;99.90
21662;DHT22;10992;48.170;8.596;2023-11-21T03:29:26;4.60;99.90
21662;DHT22;10992;48.170;8.596;2023-11-21T03:31:53;4.60;99.90
21662;DHT22;10992;48.170;8.596;2023-11-21T03:34:25;4.50;99.90
21662;DHT22;10992;48.170;8.596;2023-11-21T03:36:55;4.50;99.90
21662;DHT22;10992;48.170;8.596;2023-11-21T03:39:22;4.50;99.90
21662;DHT22;10992;48.170;8.596;2023-11-21T03:41:49;4.50;99.90
21662;DHT22;10992;48.170;8.596;2023-11-21T03:44:18;4.50;99.90
21662;DHT22;10992;48.170;8.596;2023-11-21T03:46:45;4.40;99.90
21662;DHT22;10992;48.170;8.596;2023-11-21T03:49:12;4.30;99.90
21662;DHT22;10992;48.170;8.596;2023-11-21T03:51:41;4.20;99.90
21662;DHT22;10992;48.170;8.596;2023-11-21T03:54:07;4.30;99.90
21662;DHT22;10992;48.170;8.596;2023-11-21T03:56:39;4.20;99.90
21662;DHT22;10992;48.170;8.596;2023-11-21T03:59:06;4.20;99.90
21662;DHT22;10992;48.170;8.596;2023-11-21T04:01:33;4.30;99.90
21662;DHT22;10992;48.170;8.596;2023-11-21T04:04:00;4.30;99.90
21662;DHT22;10992;48.170;8.596;2023-11-21T04:06:27;4.40;99.90
21662;DHT22;10992;48.170;8.596;2023-11-21T04:08:53;4.40;99.90
21662;DHT22;10992;48.170;8.596;2023-11-21T04:11:20;4.40;99.90
21662;DHT22;10992;48.170;8.596;2023-11-21T04:13:48;4.50;99.90
21662;DHT22;10992;48.170;8.596;2023-11-21T04:16:15;4.50;99.90
21662;DHT22;10992;48.170;8.596;2023-11-21T04:18:42;4.50;99.90
21662;DHT22;10992;48.170;8.596;2023-11-21T04:21:09;4.50;99.90
21662;DHT22;10992;48.170;8.596;2023-11-21T04:23:36;4.50;99.90
21662;DHT22;10992;48.170;8.596;2023-11-21T04:26:03;4.50;99.90
21662;DHT22;10992;48.170;8.596;2023-11-21T04:28:30;4.50;99.90
21662;DHT22;10992;48.170;8.596;2023-11-21T04:30:57;4.50;99.90
21662;DHT22;10992;48.170;8.596;2023-11-21T04:33:24;4.50;99.90
21662;DHT22;10992;48.170;8.596;2023-11-21T04:35:52;4.60;99.90
21662;DHT22;10992;48.170;8.596;2023-11-21T04:38:18;4.60;99.90
21662;DHT22;10992;48.170;8.596;2023-11-21T04:40:45;4.50;99.90
21662;DHT22;10992;48.170;8.596;2023-11-21T04:43:12;4.50;99.90
21662;DHT22;10992;48.170;8.596;2023-11-21T04:45:39;4.50;99.90
21662;DHT22;10992;48.170;8.596;2023-11-21T04:48:07;4.50;99.90
21662;DHT22;10992;48.170;8.596;2023-11-21T04:50:35;4.50;99.90
21662;DHT22;10992;48.170;8.596;2023-11-21T04:53:01;4.40;99.90
21662;DHT22;10992;48.170;8.596;2023-11-21T04:55:29;4.40;99.90
21662;DHT22;10992;48.170;8.596;2023-11-21T04:57:56;4.30;99.90
21662;DHT22;10992;48.170;8.596;2023-11-21T05:00:23;4.20;99.90
21662;DHT22;10992;48.170;8.596;2023-11-21T05:02:50;4.10;99.90
21662;DHT22;10992;48.170;8.596;2023-11-21T05:05:17;4.10;99.90
21662;DHT22;10992;48.170;8.596;2023-11-21T05:07:44;4.10;99.90
21662;DHT22;10992;48.170;8.596;2023-11-21T05:10:11;4.10;99.90
21662;DHT22;10992;48.170;8.596;2023-11-21T05:12:41;4.10;99.90
21662;DHT22;10992;48.170;8.596;2023-11-21T05:15:09;4.20;99.90
21662;DHT22;10992;48.170;8.596;2023-11-21T05:17:40;4.20;99.90
21662;DHT22;10992;48.170;8.596;2023-11-21T05:20:14;4.20;99.90
21662;DHT22;10992;48.170;8.596;2023-11-21T05:22:45;4.20;99.90
21662;DHT22;10992;48.170;8.596;2023-11-21T05:25:12;4.20;99.90
21662;DHT22;10992;48.170;8.596;2023-11-21T05:27:39;4.20;99.90
21662;DHT22;10992;48.170;8.596;2023-11-21T05:30:07;4.10;99.90
21662;DHT22;10992;48.170;8.596;2023-11-21T05:32:38;4.10;99.90
21662;DHT22;10992;48.170;8.596;2023-11-21T05:35:05;4.00;99.90
21662;DHT22;10992;48.170;8.596;2023-11-21T05:37:36;4.00;99.90
21662;DHT22;10992;48.170;8.596;2023-11-21T05:40:03;4.00;99.90
21662;DHT22;10992;48.170;8.596;2023-11-21T05:42:36;4.10;99.90
21662;DHT22;10992;48.170;8.596;2023-11-21T05:45:03;4.10;99.90
21662;DHT22;10992;48.170;8.596;2023-11-21T05:47:41;4.10;99.90
21662;DHT22;10992;48.170;8.596;2023-11-21T05:50:10;4.10;99.90
21662;DHT22;10992;48.170;8.596;2023-11-21T05:52:39;4.10;99.90
21662;DHT22;10992;48.170;8.596;2023-11-21T05:55:07;4.10;99.90
21662;DHT22;10992;48.170;8.596;2023-11-21T05:57:36;4.10;99.90
21662;DHT22;10992;48.170;8.596;2023-11-21T06:02:40;4.10;99.90
21662;DHT22;10992;48.170;8.596;2023-11-21T06:05:08;4.00;99.90
21662;DHT22;10992;48.170;8.596;2023-11-21T06:07:35;3.90;99.90
21662;DHT22;10992;48.170;8.596;2023-11-21T06:10:04;3.90;99.90
21662;DHT22;10992;48.170;8.596;2023-11-21T06:12:34;3.80;99.90
21662;DHT22;10992;48.170;8.596;2023-11-21T06:15:03;3.70;99.90
21662;DHT22;10992;48.170;8.596;2023-11-21T06:17:32;3.60;99.90
21662;DHT22;10992;48.170;8.596;2023-11-21T06:19:59;3.60;99.90
21662;DHT22;10992;48.170;8.596;2023-11-21T06:22:28;3.50;99.90
21662;DHT22;10992;48.170;8.596;2023-11-21T06:24:57;3.40;99.90
21662;DHT22;10992;48.170;8.596;2023-11-21T06:27:23;3.20;99.90
21662;DHT22;10992;48.170;8.596;2023-11-21T06:29:52;3.30;99.90
21662;DHT22;10992;48.170;8.596;2023-11-21T06:32:19;3.30;99.90
21662;DHT22;10992;48.170;8.596;2023-11-21T06:34:47;3.40;99.90
21662;DHT22;10992;48.170;8.596;2023-11-21T06:37:15;3.50;99.90
21662;DHT22;10992;48.170;8.596;2023-11-21T06:39:42;3.60;99.90
21662;DHT22;10992;48.170;8.596;2023-11-21T06:42:09;3.60;99.90
21662;DHT22;10992;48.170;8.596;2023-11-21T06:44:37;3.90;99.90
21662;DHT22;10992;48.170;8.596;2023-11-21T06:47:04;4.30;99.90
21662;DHT22;10992;48.170;8.596;2023-11-21T06:49:32;4.60;99.90
21662;DHT22;10992;48.170;8.596;2023-11-21T06:51:59;4.90;99.90
21662;DHT22;10992;48.170;8.596;2023-11-21T06:54:26;5.00;99.90
21662;DHT22;10992;48.170;8.596;2023-11-21T06:56:53;5.20;99.90
21662;DHT22;10992;48.170;8.596;2023-11-21T06:59:20;5.40;99.90
21662;DHT22;10992;48.170;8.596;2023-11-21T07:01:47;5.10;99.90
21662;DHT22;10992;48.170;8.596;2023-11-21T07:04:14;4.90;99.90
21662;DHT22;10992;48.170;8.596;2023-11-21T07:06:41;4.80;99.90
21662;DHT22;10992;48.170;8.596;2023-11-21T07:09:08;4.70;99.90
21662;DHT22;10992;48.170;8.596;2023-11-21T07:11:35;4.70;99.90
21662;DHT22;10992;48.170;8.596;2023-11-21T07:14:02;4.60;99.90
21662;DHT22;10992;48.170;8.596;2023-11-21T07:16:36;4.60;99.90
21662;DHT22;10992;48.170;8.596;2023-11-21T07:19:05;4.60;99.90
21662;DHT22;10992;48.170;8.596;2023-11-21T07:21:35;4.60;99.90
21662;DHT22;10992;48.170;8.596;2023-11-21T07:24:03;4.60;99.90
21662;DHT22;10992;48.170;8.596;2023-11-21T07:26:30;4.70;99.90
21662;DHT22;10992;48.170;8.596;2023-11-21T07:28:57;4.70;99.90
21662;DHT22;10992;48.170;8.596;2023-11-21T07:31:24;4.60;99.90
21662;DHT22;10992;48.170;8.596;2023-11-21T07:33:51;4.70;99.90
21662;DHT22;10992;48.170;8.596;2023-11-21T07:36:19;4.70;99.90
21662;DHT22;10992;48.170;8.596;2023-11-21T07:38:47;4.70;99.90
21662;DHT22;10992;48.170;8.596;2023-11-21T07:41:14;4.70;99.90
21662;DHT22;10992;48.170;8.596;2023-11-21T07:43:56;4.70;99.90
21662;DHT22;10992;48.170;8.596;2023-11-21T07:46:23;4.80;99.90
21662;DHT22;10992;48.170;8.596;2023-11-21T07:48:51;4.80;99.90
21662;DHT22;10992;48.170;8.596;2023-11-21T07:51:19;4.90;99.90
21662;DHT22;10992;48.170;8.596;2023-11-21T07:53:46;4.90;99.90
21662;DHT22;10992;48.170;8.596;2023-11-21T07:56:13;5.00;99.90
21662;DHT22;10992;48.170;8.596;2023-11-21T07:58:40;5.10;99.90
21662;DHT22;10992;48.170;8.596;2023-11-21T08:01:07;5.20;99.90
21662;DHT22;10992;48.170;8.596;2023-11-21T08:03:34;5.20;99.90
21662;DHT22;10992;48.170;8.596;2023-11-21T08:06:02;5.30;99.90
21662;DHT22;10992;48.170;8.596;2023-11-21T08:08:30;5.30;99.90
21662;DHT22;10992;48.170;8.596;2023-11-21T08:10:57;5.30;99.90
21662;DHT22;10992;48.170;8.596;2023-11-21T08:13:25;5.40;99.90
21662;DHT22;10992;48.170;8.596;2023-11-21T08:15:56;5.40;99.90
21662;DHT22;10992;48.170;8.596;2023-11-21T08:18:24;5.40;99.90
21662;DHT22;10992;48.170;8.596;2023-11-21T08:20:51;5.50;99.90
21662;DHT22;10992;48.170;8.596;2023-11-21T08:23:18;5.50;99.90
21662;DHT22;10992;48.170;8.596;2023-11-21T08:25:45;5.50;99.90
21662;DHT22;10992;48.170;8.596;2023-11-21T08:28:13;5.50;99.90
21662;DHT22;10992;48.170;8.596;2023-11-21T08:30:43;5.60;99.90
21662;DHT22;10992;48.170;8.596;2023-11-21T08:33:11;5.60;99.90
21662;DHT22;10992;48.170;8.596;2023-11-21T08:35:38;5.80;99.90
21662;DHT22;10992;48.170;8.596;2023-11-21T08:38:05;5.80;99.90
21662;DHT22;10992;48.170;8.596;2023-11-21T08:40:32;5.80;99.90
21662;DHT22;10992;48.170;8.596;2023-11-21T08:42:59;5.80;99.90
21662;DHT22;10992;48.170;8.596;2023-11-21T08:45:26;5.90;99.90
21662;DHT22;10992;48.170;8.596;2023-11-21T08:47:54;6.20;99.90
21662;DHT22;10992;48.170;8.596;2023-11-21T08:50:21;6.40;99.90
21662;DHT22;10992;48.170;8.596;2023-11-21T08:52:48;6.60;99.90
21662;DHT22;10992;48.170;8.596;2023-11-21T08:55:23;6.80;99.90
21662;DHT22;10992;48.170;8.596;2023-11-21T08:57:56;6.90;99.90
21662;DHT22;10992;48.170;8.596;2023-11-21T09:00:27;7.10;99.90
21662;DHT22;10992;48.170;8.596;2023-11-21T09:02:54;7.10;99.90
21662;DHT22;10992;48.170;8.596;2023-11-21T09:05:21;7.10;99.90
21662;DHT22;10992;48.170;8.596;2023-11-21T09:07:48;7.20;99.90
21662;DHT22;10992;48.170;8.596;2023-11-21T09:10:16;7.20;99.90
21662;DHT22;10992;48.170;8.596;2023-11-21T09:12:42;7.10;99.90
21662;DHT22;10992;48.170;8.596;2023-11-21T09:15:10;7.10;99.90
21662;DHT22;10992;48.170;8.596;2023-11-21T09:17:37;7.00;99.90
21662;DHT22;10992;48.170;8.596;2023-11-21T09:20:05;6.90;99.90
21662;DHT22;10992;48.170;8.596;2023-11-21T09:22:33;7.10;99.90
21662;DHT22;10992;48.170;8.596;2023-11-21T09:25:00;6.90;99.90
21662;DHT22;10992;48.170;8.596;2023-11-21T09:27:27;7.00;99.90
21662;DHT22;10992;48.170;8.596;2023-11-21T09:29:54;7.00;99.90
21662;DHT22;10992;48.170;8.596;2023-11-21T09:32:21;7.20;99.90
21662;DHT22;10992;48.170;8.596;2023-11-21T09:34:49;7.40;99.90
21662;DHT22;10992;48.170;8.596;2023-11-21T09:37:17;7.70;99.90
21662;DHT22;10992;48.170;8.596;2023-11-21T09:39:45;8.00;99.90
21662;DHT22;10992;48.170;8.596;2023-11-21T09:42:38;8.50;99.90
21662;DHT22;10992;48.170;8.596;2023-11-21T09:45:17;8.30;99.90
21662;DHT22;10992;48.170;8.596;2023-11-21T09:47:46;8.30;99.90
21662;DHT22;10992;48.170;8.596;2023-11-21T09:50:17;8.40;99.90
21662;DHT22;10992;48.170;8.596;2023-11-21T09:55:34;8.40;99.90
21662;DHT22;10992;48.170;8.596;2023-11-21T09:58:04;8.30;99.90
21662;DHT22;10992;48.170;8.596;2023-11-21T10:00:34;8.20;99.90
21662;DHT22;10992;48.170;8.596;2023-11-21T10:03:01;8.00;99.90
21662;DHT22;10992;48.170;8.596;2023-11-21T10:05:29;7.90;99.90
21662;DHT22;10992;48.170;8.596;2023-11-21T10:08:01;7.80;99.90
21662;DHT22;10992;48.170;8.596;2023-11-21T10:10:28;7.90;99.90
21662;DHT22;10992;48.170;8.596;2023-11-21T10:12:57;7.90;99.90
21662;DHT22;10992;48.170;8.596;2023-11-21T10:15:25;7.90;99.90
21662;DHT22;10992;48.170;8.596;2023-11-21T10:17:53;7.80;99.90
21662;DHT22;10992;48.170;8.596;2023-11-21T10:20:23;7.70;99.90
21662;DHT22;10992;48.170;8.596;2023-11-21T10:22:51;7.70;99.90
21662;DHT22;10992;48.170;8.596;2023-11-21T10:25:18;7.70;99.90
21662;DHT22;10992;48.170;8.596;2023-11-21T10:27:48;7.70;99.90
21662;DHT22;10992;48.170;8.596;2023-11-21T10:30:17;7.90;99.90
21662;DHT22;10992;48.170;8.596;2023-11-21T10:32:44;7.80;99.90
21662;DHT22;10992;48.170;8.596;2023-11-21T10:35:12;7.80;99.90
21662;DHT22;10992;48.170;8.596;2023-11-21T10:37:39;7.80;99.90
21662;DHT22;10992;48.170;8.596;2023-11-21T10:40:08;7.60;99.90
21662;DHT22;10992;48.170;8.596;2023-11-21T10:42:39;7.50;99.90
21662;DHT22;10992;48.170;8.596;2023-11-21T10:45:08;7.50;99.90
21662;DHT22;10992;48.170;8.596;2023-11-21T10:47:42;7.40;99.90
21662;DHT22;10992;48.170;8.596;2023-11-21T10:50:09;7.20;99.90
21662;DHT22;10992;48.170;8.596;2023-11-21T10:52:39;7.10;99.90
21662;DHT22;10992;48.170;8.596;2023-11-21T10:55:19;7.10;99.90
21662;DHT22;10992;48.170;8.596;2023-11-21T10:57:54;7.20;99.90
21662;DHT22;10992;48.170;8.596;2023-11-21T11:00:21;7.10;99.90
21662;DHT22;10992;48.170;8.596;2023-11-21T11:02:51;7.30;99.90
21662;DHT22;10992;48.170;8.596;2023-11-21T11:05:20;7.20;99.90
21662;DHT22;10992;48.170;8.596;2023-11-21T11:07:52;7.20;99.90
21662;DHT22;10992;48.170;8.596;2023-11-21T11:10:27;7.20;99.90
21662;DHT22;10992;48.170;8.596;2023-11-21T11:12:57;7.10;99.90
21662;DHT22;10992;48.170;8.596;2023-11-21T11:15:26;7.00;99.90
21662;DHT22;10992;48.170;8.596;2023-11-21T11:17:54;6.90;99.90
21662;DHT22;10992;48.170;8.596;2023-11-21T11:20:36;7.00;99.90
21662;DHT22;10992;48.170;8.596;2023-11-21T11:28:42;7.10;99.90
21662;DHT22;10992;48.170;8.596;2023-11-21T11:34:29;7.30;99.90
21662;DHT22;10992;48.170;8.596;2023-11-21T11:37:08;7.40;99.90
21662;DHT22;10992;48.170;8.596;2023-11-21T11:39:42;7.40;99.90
21662;DHT22;10992;48.170;8.596;2023-11-21T11:42:14;7.60;99.90
21662;DHT22;10992;48.170;8.596;2023-11-21T11:47:23;7.90;99.90
21662;DHT22;10992;48.170;8.596;2023-11-21T11:52:43;8.00;99.90
21662;DHT22;10992;48.170;8.596;2023-11-21T11:55:12;8.00;99.90
21662;DHT22;10992;48.170;8.596;2023-11-21T11:57:41;8.00;99.90
21662;DHT22;10992;48.170;8.596;2023-11-21T12:02:49;8.20;99.90
21662;DHT22;10992;48.170;8.596;2023-11-21T12:05:17;8.30;99.90
21662;DHT22;10992;48.170;8.596;2023-11-21T12:07:52;8.00;99.90
21662;DHT22;10992;48.170;8.596;2023-11-21T12:10:25;8.00;99.90
21662;DHT22;10992;48.170;8.596;2023-11-21T12:12:59;7.90;99.90
21662;DHT22;10992;48.170;8.596;2023-11-21T12:15:27;8.00;99.90
21662;DHT22;10992;48.170;8.596;2023-11-21T12:17:58;7.90;99.90
21662;DHT22;10992;48.170;8.596;2023-11-21T12:20:26;7.90;99.90
21662;DHT22;10992;48.170;8.596;2023-11-21T12:22:56;7.70;99.90
21662;DHT22;10992;48.170;8.596;2023-11-21T12:25:30;7.60;99.90
21662;DHT22;10992;48.170;8.596;2023-11-21T12:28:02;7.60;99.90
21662;DHT22;10992;48.170;8.596;2023-11-21T12:30:31;7.50;99.90
21662;DHT22;10992;48.170;8.596;2023-11-21T12:32:59;7.30;99.90
21662;DHT22;10992;48.170;8.596;2023-11-21T12:35:32;7.30;99.90
21662;DHT22;10992;48.170;8.596;2023-11-21T12:38:04;7.50;99.90
21662;DHT22;10992;48.170;8.596;2023-11-21T12:40:31;7.40;99.90
21662;DHT22;10992;48.170;8.596;2023-11-21T12:42:59;7.30;99.90
21662;DHT22;10992;48.170;8.596;2023-11-21T12:45:29;7.40;99.90
21662;DHT22;10992;48.170;8.596;2023-11-21T12:48:00;7.40;99.90
21662;DHT22;10992;48.170;8.596;2023-11-21T12:50:31;7.40;99.90
21662;DHT22;10992;48.170;8.596;2023-11-21T12:53:05;7.30;99.90
21662;DHT22;10992;48.170;8.596;2023-11-21T12:55:33;7.20;99.90
21662;DHT22;10992;48.170;8.596;2023-11-21T12:58:06;7.10;99.90
21662;DHT22;10992;48.170;8.596;2023-11-21T13:00:45;7.10;99.90
21662;DHT22;10992;48.170;8.596;2023-11-21T13:03:14;7.10;99.90
21662;DHT22;10992;48.170;8.596;2023-11-21T13:05:47;7.10;99.90
21662;DHT22;10992;48.170;8.596;2023-11-21T13:08:20;7.30;99.90
21662;DHT22;10992;48.170;8.596;2023-11-21T13:10:55;7.40;99.90
21662;DHT22;10992;48.170;8.596;2023-11-21T13:13:25;7.40;99.90
21662;DHT22;10992;48.170;8.596;2023-11-21T13:15:56;7.40;99.90
21662;DHT22;10992;48.170;8.596;2023-11-21T13:18:24;7.40;99.90
21662;DHT22;10992;48.170;8.596;2023-11-21T13:20:58;7.30;99.90
21662;DHT22;10992;48.170;8.596;2023-11-21T13:23:26;7.40;99.90
21662;DHT22;10992;48.170;8.596;2023-11-21T13:25:54;7.40;99.90
21662;DHT22;10992;48.170;8.596;2023-11-21T13:28:31;7.50;99.90
21662;DHT22;10992;48.170;8.596;2023-11-21T13:31:01;7.50;99.90
21662;DHT22;10992;48.170;8.596;2023-11-21T13:33:29;7.40;99.90
21662;DHT22;10992;48.170;8.596;2023-11-21T13:35:57;7.20;99.90
21662;DHT22;10992;48.170;8.596;2023-11-21T13:38:24;7.20;99.90
21662;DHT22;10992;48.170;8.596;2023-11-21T13:40:52;7.20;99.90
21662;DHT22;10992;48.170;8.596;2023-11-21T13:43:23;7.30;99.90
21662;DHT22;10992;48.170;8.596;2023-11-21T13:45:53;7.20;99.90
21662;DHT22;10992;48.170;8.596;2023-11-21T13:48:37;7.10;99.90
21662;DHT22;10992;48.170;8.596;2023-11-21T13:51:15;6.90;99.90
21662;DHT22;10992;48.170;8.596;2023-11-21T13:53:46;6.90;99.90
21662;DHT22;10992;48.170;8.596;2023-11-21T13:56:16;6.90;99.90
21662;DHT22;10992;48.170;8.596;2023-11-21T13:58:47;6.80;99.90
21662;DHT22;10992;48.170;8.596;2023-11-21T14:01:20;6.70;99.90
21662;DHT22;10992;48.170;8.596;2023-11-21T14:03:58;6.70;99.90
21662;DHT22;10992;48.170;8.596;2023-11-21T14:06:35;6.70;99.90
21662;DHT22;10992;48.170;8.596;2023-11-21T14:09:12;6.70;99.90
21662;DHT22;10992;48.170;8.596;2023-11-21T14:11:52;6.60;99.90
21662;DHT22;10992;48.170;8.596;2023-11-21T14:14:22;6.70;99.90
21662;DHT22;10992;48.170;8.596;2023-11-21T14:16:51;6.60;99.90
21662;DHT22;10992;48.170;8.596;2023-11-21T14:19:18;6.60;99.90
21662;DHT22;10992;48.170;8.596;2023-11-21T14:21:46;6.60;99.90
21662;DHT22;10992;48.170;8.596;2023-11-21T14:24:13;6.60;99.90
21662;DHT22;10992;48.170;8.596;2023-11-21T14:26:43;6.60;99.90
21662;DHT22;10992;48.170;8.596;2023-11-21T14:29:13;6.60;99.90
21662;DHT22;10992;48.170;8.596;2023-11-21T14:31:47;6.50;99.90
21662;DHT22;10992;48.170;8.596;2023-11-21T14:34:14;6.60;99.90
21662;DHT22;10992;48.170;8.596;2023-11-21T14:36:46;6.70;99.90
21662;DHT22;10992;48.170;8.596;2023-11-21T14:39:12;6.70;99.90
21662;DHT22;10992;48.170;8.596;2023-11-21T14:41:51;6.60;99.90
21662;DHT22;10992;48.170;8.596;2023-11-21T14:44:19;6.60;99.90
21662;DHT22;10992;48.170;8.596;2023-11-21T14:46:47;6.60;99.90
21662;DHT22;10992;48.170;8.596;2023-11-21T14:49:17;6.60;99.90
21662;DHT22;10992;48.170;8.596;2023-11-21T14:51:49;6.40;99.90
21662;DHT22;10992;48.170;8.596;2023-11-21T14:54:28;6.40;99.90
21662;DHT22;10992;48.170;8.596;2023-11-21T14:57:12;6.10;99.90
21662;DHT22;10992;48.170;8.596;2023-11-21T14:59:46;6.10;99.90
21662;DHT22;10992;48.170;8.596;2023-11-21T15:02:15;6.00;99.90
21662;DHT22;10992;48.170;8.596;2023-11-21T15:04:43;5.90;99.90
21662;DHT22;10992;48.170;8.596;2023-11-21T15:07:10;5.80;99.90
21662;DHT22;10992;48.170;8.596;2023-11-21T15:09:38;5.90;99.90
21662;DHT22;10992;48.170;8.596;2023-11-21T15:12:09;5.80;99.90
21662;DHT22;10992;48.170;8.596;2023-11-21T15:14:44;5.80;99.90
21662;DHT22;10992;48.170;8.596;2023-11-21T15:17:14;5.90;99.90
21662;DHT22;10992;48.170;8.596;2023-11-21T15:19:56;5.90;99.90
21662;DHT22;10992;48.170;8.596;2023-11-21T15:22:23;5.80;99.90
21662;DHT22;10992;48.170;8.596;2023-11-21T15:24:50;5.70;99.90
21662;DHT22;10992;48.170;8.596;2023-11-21T15:27:17;5.60;99.90
21662;DHT22;10992;48.170;8.596;2023-11-21T15:29:46;5.60;99.90
21662;DHT22;10992;48.170;8.596;2023-11-21T15:32:13;5.50;99.90
21662;DHT22;10992;48.170;8.596;2023-11-21T15:34:40;5.50;99.90
21662;DHT22;10992;48.170;8.596;2023-11-21T15:37:08;5.50;99.90
21662;DHT22;10992;48.170;8.596;2023-11-21T15:39:39;5.60;99.90
21662;DHT22;10992;48.170;8.596;2023-11-21T15:42:06;5.70;99.90
21662;DHT22;10992;48.170;8.596;2023-11-21T15:44:37;5.70;99.90
21662;DHT22;10992;48.170;8.596;2023-11-21T15:47:04;5.70;99.90
21662;DHT22;10992;48.170;8.596;2023-11-21T15:49:31;5.70;99.90
21662;DHT22;10992;48.170;8.596;2023-11-21T15:52:05;5.60;99.90
21662;DHT22;10992;48.170;8.596;2023-11-21T15:54:35;5.60;99.90
21662;DHT22;10992;48.170;8.596;2023-11-21T15:57:03;5.60;99.90
21662;DHT22;10992;48.170;8.596;2023-11-21T15:59:31;5.60;99.90
21662;DHT22;10992;48.170;8.596;2023-11-21T16:02:00;5.60;99.90
21662;DHT22;10992;48.170;8.596;2023-11-21T16:04:28;5.60;99.90
21662;DHT22;10992;48.170;8.596;2023-11-21T16:06:55;5.80;99.90
21662;DHT22;10992;48.170;8.596;2023-11-21T16:09:23;5.90;99.90
21662;DHT22;10992;48.170;8.596;2023-11-21T16:12:04;5.80;99.90
21662;DHT22;10992;48.170;8.596;2023-11-21T16:14:34;5.80;99.90
21662;DHT22;10992;48.170;8.596;2023-11-21T16:17:02;5.90;99.90
21662;DHT22;10992;48.170;8.596;2023-11-21T16:19:30;5.90;99.90